createdAt,value
2019-02-19T00:00:33.903Z,101012.48
2019-02-19T00:03:07.205Z,101011.13
2019-02-19T00:05:40.493Z,101017.50
2019-02-19T00:08:13.753Z,101025.22
2019-02-19T00:10:47.070Z,101027.09
2019-02-19T00:13:20.373Z,101024.31
2019-02-19T00:15:53.683Z,101021.60
2019-02-19T00:18:26.958Z,101017.25
2019-02-19T00:21:00.258Z,101016.48
2019-02-19T00:23:35.075Z,101017.25
2019-02-19T00:26:13.146Z,101016.96
2019-02-19T00:28:46.446Z,101023.97
2019-02-19T00:31:19.741Z,101017.49
2019-02-19T00:33:55.126Z,101020.97
2019-02-19T00:36:28.419Z,101020.37
2019-02-19T00:39:01.721Z,101016.87
2019-02-19T00:41:35.026Z,101023.81
2019-02-19T00:44:08.318Z,101020.80
2019-02-19T00:46:41.614Z,101020.55
2019-02-19T00:49:14.898Z,101017.11
2019-02-19T00:51:48.198Z,101011.65
2019-02-19T00:54:21.481Z,101010.86
2019-02-19T00:56:54.784Z,101010.09
2019-02-19T00:59:28.070Z,101013.89
2019-02-19T01:02:01.386Z,101017.69
2019-02-19T01:04:34.669Z,101014.85
2019-02-19T01:07:08.015Z,101017.72
2019-02-19T01:09:41.295Z,101016.81
2019-02-19T01:12:14.674Z,101023.87
2019-02-19T01:14:47.964Z,101026.42
2019-02-19T01:17:21.244Z,101023.16
2019-02-19T01:19:54.548Z,101024.80
2019-02-19T01:22:27.842Z,101023.41
2019-02-19T01:25:01.713Z,101023.67
2019-02-19T01:27:34.990Z,101020.86
2019-02-19T01:30:10.148Z,101019.90
2019-02-19T01:32:43.428Z,101014.58
2019-02-19T01:35:16.725Z,101012.52
2019-02-19T01:37:50.014Z,101009.61
2019-02-19T01:40:23.378Z,101014.22
2019-02-19T01:42:57.718Z,101016.92
2019-02-19T01:45:34.283Z,101019.59
2019-02-19T01:48:07.751Z,101014.59
2019-02-19T01:50:41.045Z,101014.52
2019-02-19T01:53:14.158Z,101018.07
2019-02-19T01:55:47.454Z,101008.80
2019-02-19T01:58:21.723Z,100998.00
2019-02-19T02:00:55.038Z,101002.05
2019-02-19T02:03:28.320Z,100997.64
2019-02-19T02:06:02.653Z,100992.91
2019-02-19T02:08:35.930Z,101000.06
2019-02-19T02:11:09.231Z,100996.80
2019-02-19T02:13:44.062Z,101001.23
2019-02-19T02:16:17.372Z,101006.20
2019-02-19T02:18:50.657Z,101007.29
2019-02-19T02:21:23.955Z,101001.70
2019-02-19T02:23:57.218Z,101000.88
2019-02-19T02:26:32.833Z,100993.94
2019-02-19T02:29:06.108Z,100987.81
2019-02-19T02:31:39.402Z,100988.06
2019-02-19T02:34:14.200Z,100993.71
2019-02-19T02:36:47.500Z,100993.63
2019-02-19T02:39:21.441Z,100994.01
2019-02-19T02:41:54.746Z,100993.98
2019-02-19T02:44:29.138Z,100983.57
2019-02-19T02:47:04.480Z,100981.82
2019-02-19T02:49:37.757Z,100985.10
2019-02-19T02:52:11.066Z,100992.91
2019-02-19T02:54:44.325Z,100981.86
2019-02-19T02:57:17.638Z,100986.26
2019-02-19T02:59:50.915Z,100979.38
2019-02-19T03:02:24.212Z,100983.66
2019-02-19T03:04:57.494Z,100974.35
2019-02-19T03:07:32.427Z,100987.59
2019-02-19T03:10:06.485Z,100979.64
2019-02-19T03:12:39.866Z,100979.00
2019-02-19T03:15:13.512Z,100985.70
2019-02-19T03:17:46.812Z,100984.52
2019-02-19T03:20:20.086Z,100979.45
2019-02-19T03:22:53.399Z,100983.51
2019-02-19T03:25:26.687Z,100984.70
2019-02-19T03:27:59.976Z,100989.64
2019-02-19T03:30:33.280Z,100988.20
2019-02-19T03:33:06.601Z,100992.92
2019-02-19T03:35:40.160Z,100990.60
2019-02-19T03:38:13.496Z,100986.05
2019-02-19T03:40:46.738Z,100988.78
2019-02-19T03:43:20.045Z,100994.55
2019-02-19T03:45:53.331Z,100989.13
2019-02-19T03:48:26.692Z,100979.33
2019-02-19T03:50:59.989Z,100983.43
2019-02-19T03:53:33.289Z,100984.88
2019-02-19T03:56:06.631Z,100989.19
2019-02-19T03:58:39.953Z,100992.90
2019-02-19T04:01:13.274Z,100996.37
2019-02-19T04:03:46.645Z,101000.09
2019-02-19T04:06:19.911Z,101003.69
2019-02-19T04:08:53.211Z,101009.11
2019-02-19T04:11:26.506Z,101011.39
2019-02-19T04:13:59.832Z,101008.19
2019-02-19T04:16:33.112Z,101005.42
2019-02-19T04:19:06.413Z,101004.48
2019-02-19T04:21:39.692Z,100998.14
2019-02-19T04:24:12.813Z,100998.74
2019-02-19T04:26:46.102Z,101005.80
2019-02-19T04:29:19.402Z,101002.93
2019-02-19T04:31:52.690Z,101010.11
2019-02-19T04:34:25.987Z,101003.12
2019-02-19T04:36:59.314Z,101006.98
2019-02-19T04:39:32.609Z,101000.56
2019-02-19T04:42:05.885Z,101007.39
2019-02-19T04:44:39.168Z,101008.83
2019-02-19T04:47:12.453Z,101015.86
2019-02-19T04:49:45.755Z,101022.58
2019-02-19T04:52:18.877Z,101015.25
2019-02-19T04:54:52.178Z,101004.06
2019-02-19T04:57:26.028Z,101010.20
2019-02-19T04:59:59.296Z,101004.44
2019-02-19T05:02:32.613Z,101000.18
2019-02-19T05:05:06.545Z,101000.91
2019-02-19T05:07:39.841Z,101006.92
2019-02-19T05:10:13.223Z,101013.98
2019-02-19T05:12:46.532Z,101025.09
2019-02-19T05:15:20.384Z,101019.50
2019-02-19T05:17:53.652Z,101019.59
2019-02-19T05:20:26.962Z,101022.20
2019-02-19T05:23:00.228Z,101018.91
2019-02-19T05:25:33.533Z,101015.65
2019-02-19T05:28:08.030Z,101016.72
2019-02-19T05:30:43.169Z,101008.62
2019-02-19T05:33:16.722Z,101014.78
2019-02-19T05:35:50.001Z,101013.47
2019-02-19T05:38:23.303Z,101014.77
2019-02-19T05:40:57.811Z,101010.98
2019-02-19T05:43:31.098Z,101017.91
2019-02-19T05:46:04.420Z,101014.06
2019-02-19T05:48:37.713Z,101014.05
2019-02-19T05:51:11.017Z,101021.92
2019-02-19T05:53:45.936Z,101015.94
2019-02-19T05:56:19.223Z,101017.75
2019-02-19T05:58:52.516Z,101023.39
2019-02-19T06:01:25.825Z,101023.43
2019-02-19T06:03:59.220Z,101025.62
2019-02-19T06:06:33.273Z,101029.58
2019-02-19T06:09:06.630Z,101029.63
2019-02-19T06:11:39.992Z,101035.22
2019-02-19T06:14:13.385Z,101035.26
2019-02-19T06:16:46.679Z,101034.88
2019-02-19T06:19:21.291Z,101032.33
2019-02-19T06:21:54.659Z,101036.74
2019-02-19T06:24:27.983Z,101035.05
2019-02-19T06:27:01.280Z,101040.35
2019-02-19T06:29:34.566Z,101035.56
2019-02-19T06:32:07.878Z,101039.89
2019-02-19T06:34:41.207Z,101042.92
2019-02-19T06:37:14.516Z,101049.86
2019-02-19T06:39:47.811Z,101050.33
2019-02-19T06:42:21.091Z,101056.47
2019-02-19T06:44:54.403Z,101053.02
2019-02-19T06:47:27.687Z,101061.73
2019-02-19T06:50:00.987Z,101063.49
2019-02-19T06:52:34.264Z,101056.97
2019-02-19T06:55:08.250Z,101054.44
2019-02-19T06:57:41.520Z,101061.00
2019-02-19T07:00:14.895Z,101059.66
2019-02-19T07:02:50.151Z,101056.12
2019-02-19T07:05:25.032Z,101058.23
2019-02-19T07:07:58.311Z,101062.19
2019-02-19T07:10:31.603Z,101053.05
2019-02-19T07:13:04.871Z,101046.50
2019-02-19T07:15:38.433Z,101056.05
2019-02-19T07:18:11.734Z,101062.10
2019-02-19T07:20:44.998Z,101075.09
2019-02-19T07:23:18.310Z,101092.05
2019-02-19T07:25:51.604Z,101091.16
2019-02-19T07:28:24.890Z,101105.09
2019-02-19T07:30:58.256Z,101110.30
2019-02-19T07:33:31.531Z,101112.95
2019-02-19T07:36:04.904Z,101122.50
2019-02-19T07:38:38.181Z,101124.73
2019-02-19T07:41:11.481Z,101128.70
2019-02-19T07:43:44.894Z,101127.06
2019-02-19T07:46:18.224Z,101116.62
2019-02-19T07:48:51.515Z,101133.59
2019-02-19T07:51:24.815Z,101137.92
2019-02-19T07:53:58.088Z,101141.41
2019-02-19T07:56:31.375Z,101138.39
2019-02-19T07:59:04.657Z,101142.72
2019-02-19T08:01:37.938Z,101153.99
2019-02-19T08:04:11.242Z,101154.41
2019-02-19T08:06:44.534Z,101162.66
2019-02-19T08:09:17.818Z,101162.19
2019-02-19T08:11:52.642Z,101163.50
2019-02-19T08:14:25.948Z,101168.72
2019-02-19T08:16:59.291Z,101173.09
2019-02-19T08:19:32.574Z,101173.51
2019-02-19T08:22:05.865Z,101181.76
2019-02-19T08:24:39.159Z,101188.28
2019-02-19T08:27:12.448Z,101187.86
2019-02-19T08:29:45.719Z,101188.70
2019-02-19T08:32:19.000Z,101190.47
2019-02-19T08:34:52.280Z,101195.27
2019-02-19T08:37:25.566Z,101206.11
2019-02-19T08:39:58.829Z,101198.76
2019-02-19T08:42:32.125Z,101201.41
2019-02-19T08:45:07.424Z,101200.58
2019-02-19T08:47:42.857Z,101200.63
2019-02-19T08:50:15.769Z,101209.81
2019-02-19T08:52:49.068Z,101215.12
2019-02-19T08:55:22.340Z,101219.00
2019-02-19T08:57:55.637Z,101218.57
2019-02-19T09:00:29.422Z,101214.23
2019-02-19T09:03:02.740Z,101222.48
2019-02-19T09:05:36.018Z,101222.91
2019-02-19T09:08:09.388Z,101223.75
2019-02-19T09:10:42.668Z,101217.63
2019-02-19T09:13:15.968Z,101235.34
2019-02-19T09:15:49.248Z,101228.03
2019-02-19T09:18:24.108Z,101226.91
2019-02-19T09:20:57.409Z,101227.75
2019-02-19T09:23:30.739Z,101225.19
2019-02-19T09:26:04.003Z,101230.83
2019-02-19T09:28:37.303Z,101244.72
2019-02-19T09:31:10.584Z,101242.47
2019-02-19T09:33:43.910Z,101247.27
2019-02-19T09:36:17.178Z,101242.95
2019-02-19T09:38:50.499Z,101247.38
2019-02-19T09:41:23.776Z,101246.63
2019-02-19T09:43:57.066Z,101248.86
2019-02-19T09:46:30.349Z,101245.88
2019-02-19T09:49:03.650Z,101245.91
2019-02-19T09:51:36.952Z,101244.61
2019-02-19T09:54:10.274Z,101239.03
2019-02-19T09:56:43.556Z,101242.20
2019-02-19T09:59:16.833Z,101233.55
2019-02-19T10:01:50.105Z,101242.75
2019-02-19T10:04:23.397Z,101251.81
2019-02-19T10:06:56.689Z,101245.67
2019-02-19T10:09:29.979Z,101249.16
2019-02-19T10:12:03.259Z,101251.31
2019-02-19T10:14:36.563Z,101256.12
2019-02-19T10:17:09.831Z,101268.30
2019-02-19T10:19:43.130Z,101275.61
2019-02-19T10:22:16.400Z,101275.98
2019-02-19T10:24:49.695Z,101277.20
2019-02-19T10:27:22.980Z,101284.63
2019-02-19T10:29:56.262Z,101289.47
2019-02-19T10:32:31.931Z,101278.17
2019-02-19T10:35:06.816Z,101290.81
2019-02-19T10:37:40.760Z,101295.53
2019-02-19T10:40:18.919Z,101294.69
2019-02-19T10:42:52.281Z,101296.00
2019-02-19T10:45:27.230Z,101296.88
2019-02-19T10:48:02.095Z,101289.05
2019-02-19T10:50:35.360Z,101289.89
2019-02-19T10:53:08.685Z,101299.88
2019-02-19T10:55:42.512Z,101305.98
2019-02-19T10:58:22.515Z,101307.24
2019-02-19T11:00:51.945Z,101304.63
2019-02-19T11:03:25.249Z,101305.94
2019-02-19T11:05:58.558Z,101300.75
2019-02-19T11:08:31.829Z,101305.05
2019-02-19T11:11:05.125Z,101300.67
2019-02-19T11:13:38.424Z,101302.90
2019-02-19T11:16:11.721Z,101298.56
2019-02-19T11:18:45.020Z,101296.46
2019-02-19T11:21:20.010Z,101299.16
2019-02-19T11:23:53.447Z,101306.61
2019-02-19T11:26:26.751Z,101298.42
2019-02-19T11:29:00.031Z,101298.13
2019-02-19T11:31:33.331Z,101298.55
2019-02-19T11:34:06.606Z,101301.27
2019-02-19T11:36:39.883Z,101298.75
2019-02-19T11:39:14.054Z,101295.34
2019-02-19T11:41:47.371Z,101295.73
2019-02-19T11:44:20.657Z,101290.11
2019-02-19T11:46:53.973Z,101288.44
2019-02-19T11:49:27.255Z,101287.93
2019-02-19T11:52:00.807Z,101278.31
2019-02-19T11:54:34.075Z,101277.57
2019-02-19T11:57:07.384Z,101278.03
2019-02-19T11:59:40.678Z,101277.20
2019-02-19T12:02:15.644Z,101281.09
2019-02-19T12:04:48.944Z,101274.13
2019-02-19T12:07:22.311Z,101281.53
2019-02-19T12:09:55.655Z,101279.34
2019-02-19T12:12:28.892Z,101273.63
2019-02-19T12:15:02.211Z,101282.81
2019-02-19T12:17:35.497Z,101272.82
2019-02-19T12:20:13.265Z,101273.27
2019-02-19T12:22:46.610Z,101278.92
2019-02-19T12:25:19.921Z,101275.44
2019-02-19T12:27:53.266Z,101269.30
2019-02-19T12:30:26.554Z,101264.89
2019-02-19T12:32:59.838Z,101257.48
2019-02-19T12:35:33.133Z,101256.87
2019-02-19T12:38:06.419Z,101251.95
2019-02-19T12:40:39.726Z,101241.83
2019-02-19T12:43:13.360Z,101233.73
2019-02-19T12:45:46.779Z,101236.69
2019-02-19T12:48:20.069Z,101226.52
2019-02-19T12:50:53.832Z,101214.81
2019-02-19T12:53:27.113Z,101215.50
2019-02-19T12:56:00.397Z,101219.38
2019-02-19T12:58:33.659Z,101223.52
2019-02-19T13:01:08.627Z,101227.45
2019-02-19T13:03:41.908Z,101228.66
2019-02-19T13:06:15.202Z,101213.00
2019-02-19T13:08:48.467Z,101207.13
2019-02-19T13:11:21.786Z,101205.20
2019-02-19T13:13:55.171Z,101211.58
2019-02-19T13:16:28.481Z,101210.97
2019-02-19T13:19:03.732Z,101201.98
2019-02-19T13:21:37.167Z,101198.50
2019-02-19T13:24:10.450Z,101191.55
2019-02-19T13:26:43.766Z,101191.33
2019-02-19T13:29:17.047Z,101192.56
2019-02-19T13:31:50.358Z,101184.91
2019-02-19T13:34:23.670Z,101191.38
2019-02-19T13:36:56.960Z,101199.29
2019-02-19T13:39:30.266Z,101193.89
2019-02-19T13:42:03.561Z,101194.59
2019-02-19T13:44:36.845Z,101187.81
2019-02-19T13:47:10.394Z,101188.69
2019-02-19T13:49:44.933Z,101188.59
2019-02-19T13:52:22.546Z,101191.64
2019-02-19T13:54:55.298Z,101194.69
2019-02-19T13:57:28.572Z,101185.20
2019-02-19T14:00:01.877Z,101176.96
2019-02-19T14:02:35.157Z,101178.39
2019-02-19T14:05:08.808Z,101184.12
2019-02-19T14:07:42.111Z,101194.77
2019-02-19T14:10:15.410Z,101186.75
2019-02-19T14:12:48.764Z,101193.29
2019-02-19T14:15:42.108Z,101179.08
2019-02-19T14:18:17.048Z,101183.55
2019-02-19T14:20:51.981Z,101179.07
2019-02-19T14:23:43.336Z,101182.50
2019-02-19T14:26:18.235Z,101171.06
2019-02-19T14:29:02.377Z,101182.27
2019-02-19T14:31:48.974Z,101184.35
2019-02-19T14:34:29.722Z,101197.06
2019-02-19T14:37:13.438Z,101198.27
2019-02-19T14:39:50.826Z,101188.31
2019-02-19T14:42:41.642Z,101184.23
2019-02-19T14:45:28.523Z,101193.85
2019-02-19T14:48:09.163Z,101198.47
2019-02-19T14:50:47.060Z,101192.33
2019-02-19T14:53:34.132Z,101195.45
2019-02-19T14:56:12.149Z,101195.45
2019-02-19T14:59:03.213Z,101194.91
2019-02-19T15:01:54.310Z,101186.31
2019-02-19T15:04:31.926Z,101200.97
2019-02-19T15:07:09.770Z,101193.38
2019-02-19T15:09:47.421Z,101192.64
2019-02-19T15:12:28.383Z,101195.81
2019-02-19T15:15:04.649Z,101199.27
2019-02-19T15:17:39.566Z,101199.84
2019-02-19T15:20:30.938Z,101178.05
2019-02-19T15:23:12.094Z,101178.09
2019-02-19T15:25:49.709Z,101187.24
2019-02-19T15:28:36.590Z,101187.24
2019-02-19T15:31:26.533Z,101187.43
2019-02-19T15:34:07.172Z,101191.00
2019-02-19T15:36:58.556Z,101180.66
2019-02-19T15:39:36.168Z,101179.52
2019-02-19T15:42:13.762Z,101194.75
2019-02-19T15:44:48.698Z,101180.68
2019-02-19T15:47:38.679Z,101180.68
2019-02-19T15:50:29.699Z,101191.21
2019-02-19T15:53:07.423Z,101186.11
2019-02-19T15:55:58.787Z,101196.20
2019-02-19T15:58:33.795Z,101199.83
2019-02-19T16:01:26.454Z,101200.33
2019-02-19T16:04:04.386Z,101193.82
2019-02-19T16:06:55.213Z,101196.13
2019-02-19T16:09:41.959Z,101198.30
2019-02-19T16:12:16.899Z,101205.38
2019-02-19T16:15:06.690Z,101210.67
2019-02-19T16:17:47.538Z,101213.37
2019-02-19T16:20:28.439Z,101208.16
2019-02-19T16:23:06.379Z,101214.72
2019-02-19T16:25:53.152Z,101216.52
2019-02-19T16:28:34.264Z,101214.81
2019-02-19T16:31:09.176Z,101210.84
2019-02-19T16:33:49.891Z,101216.61
2019-02-19T16:36:24.806Z,101214.47
2019-02-19T16:39:17.504Z,101218.45
2019-02-19T16:41:52.440Z,101224.66
2019-02-19T16:44:30.396Z,101219.00
2019-02-19T16:47:14.216Z,101221.20
2019-02-19T16:50:08.067Z,101218.17
2019-02-19T16:52:42.406Z,101225.20
2019-02-19T16:55:20.180Z,101229.58
2019-02-19T16:57:55.119Z,101222.59
2019-02-19T17:00:39.039Z,101236.59
2019-02-19T17:03:22.818Z,101240.06
2019-02-19T17:06:03.528Z,101245.29
2019-02-19T17:08:50.270Z,101245.72
2019-02-19T17:11:34.768Z,101246.06
2019-02-19T17:14:33.679Z,101254.69
2019-02-19T17:17:17.720Z,101251.62
2019-02-19T17:19:55.027Z,101251.27
2019-02-19T17:22:30.045Z,101256.97
2019-02-19T17:25:08.397Z,101257.86
2019-02-19T17:27:43.326Z,101258.72
2019-02-19T17:30:21.005Z,101256.55
2019-02-19T17:33:04.624Z,101265.20
2019-02-19T17:35:48.514Z,101265.56
2019-02-19T17:38:35.160Z,101266.79
2019-02-19T17:41:12.846Z,101272.29
2019-02-19T17:43:56.863Z,101273.20
2019-02-19T17:46:44.044Z,101274.63
2019-02-19T17:49:30.947Z,101278.09
2019-02-19T17:52:21.801Z,101278.56
2019-02-19T17:54:56.715Z,101273.66
2019-02-19T17:57:37.613Z,101280.28
2019-02-19T18:00:25.285Z,101277.19
2019-02-19T18:03:09.390Z,101277.09
2019-02-19T18:06:00.438Z,101276.67
2019-02-19T18:08:41.138Z,101279.63
2019-02-19T18:11:18.520Z,101286.94
2019-02-19T18:13:56.517Z,101291.05
2019-02-19T18:16:40.302Z,101295.24
2019-02-19T18:19:13.614Z,101299.06
2019-02-19T18:21:46.904Z,101296.46
2019-02-19T18:24:21.552Z,101302.39
2019-02-19T18:26:55.013Z,101305.65
2019-02-19T18:29:28.332Z,101306.72
2019-02-19T18:32:01.609Z,101306.14
2019-02-19T18:34:34.941Z,101305.43
2019-02-19T18:37:08.202Z,101304.64
2019-02-19T18:39:41.609Z,101303.80
2019-02-19T18:42:14.893Z,101304.00
2019-02-19T18:44:48.225Z,101304.04
2019-02-19T18:47:21.504Z,101304.93
2019-02-19T18:49:55.882Z,101310.68
2019-02-19T18:52:29.147Z,101307.67
2019-02-19T18:55:02.527Z,101312.47
2019-02-19T18:57:35.808Z,101318.84
2019-02-19T19:00:13.365Z,101317.06
2019-02-19T19:02:46.724Z,101314.12
2019-02-19T19:05:20.145Z,101318.34
2019-02-19T19:07:53.406Z,101319.42
2019-02-19T19:10:26.724Z,101317.84
2019-02-19T19:13:00.171Z,101321.55
2019-02-19T19:15:33.562Z,101318.38
2019-02-19T19:18:06.947Z,101319.47
2019-02-19T19:20:40.617Z,101322.38
2019-02-19T19:23:13.916Z,101328.26
2019-02-19T19:25:47.199Z,101338.55
2019-02-19T19:28:20.492Z,101340.53
2019-02-19T19:30:53.819Z,101335.50
2019-02-19T19:33:27.135Z,101336.78
2019-02-19T19:36:00.521Z,101340.09
2019-02-19T19:38:33.843Z,101344.17
2019-02-19T19:41:08.760Z,101347.73
2019-02-19T19:43:42.024Z,101354.31
2019-02-19T19:46:15.387Z,101356.18
2019-02-19T19:48:48.660Z,101356.18
2019-02-19T19:51:22.101Z,101363.41
2019-02-19T19:53:55.395Z,101359.50
2019-02-19T19:56:28.829Z,101362.81
2019-02-19T19:59:02.126Z,101365.23
2019-02-19T20:01:35.535Z,101366.70
2019-02-19T20:04:08.912Z,101367.38
2019-02-19T20:06:42.429Z,101367.23
2019-02-19T20:09:16.009Z,101375.58
2019-02-19T20:11:49.316Z,101369.42
2019-02-19T20:14:22.743Z,101372.07
2019-02-19T20:16:56.070Z,101378.84
2019-02-19T20:19:29.404Z,101373.47
2019-02-19T20:22:03.170Z,101372.50
2019-02-19T20:24:38.019Z,101376.97
2019-02-19T20:27:11.347Z,101386.34
2019-02-19T20:29:45.639Z,101382.75
2019-02-19T20:32:18.942Z,101390.45
2019-02-19T20:34:52.611Z,101390.64
2019-02-19T20:37:26.437Z,101386.63
2019-02-19T20:39:59.729Z,101391.62
2019-02-19T20:42:33.042Z,101398.25
2019-02-19T20:45:13.094Z,101401.08
2019-02-19T20:47:46.390Z,101403.16
2019-02-19T20:50:19.711Z,101398.82
2019-02-19T20:52:53.003Z,101402.58
2019-02-19T20:55:26.785Z,101396.94
2019-02-19T20:58:00.087Z,101405.52
2019-02-19T21:00:33.572Z,101395.26
2019-02-19T21:03:06.907Z,101400.76
2019-02-19T21:05:40.244Z,101403.71
2019-02-19T21:08:13.519Z,101403.85
2019-02-19T21:10:47.180Z,101401.42
2019-02-19T21:13:20.583Z,101407.33
2019-02-19T21:15:53.910Z,101401.52
2019-02-19T21:18:27.185Z,101407.92
2019-02-19T21:21:00.475Z,101405.49
2019-02-19T21:23:33.784Z,101405.98
2019-02-19T21:26:07.160Z,101407.78
2019-02-19T21:28:40.466Z,101405.59
2019-02-19T21:31:13.785Z,101403.98
2019-02-19T21:33:47.105Z,101406.89
2019-02-19T21:36:20.245Z,101404.48
2019-02-19T21:38:53.522Z,101406.83
2019-02-19T21:41:26.820Z,101405.27
2019-02-19T21:44:00.125Z,101411.02
2019-02-19T21:46:33.406Z,101415.08
2019-02-19T21:49:07.533Z,101418.73
2019-02-19T21:51:40.854Z,101416.85
2019-02-19T21:54:14.155Z,101424.80
2019-02-19T21:56:47.463Z,101421.32
2019-02-19T21:59:20.766Z,101423.52
2019-02-19T22:01:54.147Z,101428.01
2019-02-19T22:04:27.452Z,101430.02
2019-02-19T22:07:01.373Z,101433.31
2019-02-19T22:09:34.670Z,101434.20
2019-02-19T22:12:09.187Z,101426.50
2019-02-19T22:14:42.477Z,101428.64
2019-02-19T22:17:15.800Z,101425.84
2019-02-19T22:19:49.070Z,101426.33
2019-02-19T22:22:22.379Z,101435.02
2019-02-19T22:24:55.672Z,101433.18
2019-02-19T22:27:28.962Z,101438.45
2019-02-19T22:30:02.268Z,101436.65
2019-02-19T22:32:35.593Z,101440.71
2019-02-19T22:35:08.946Z,101446.66
2019-02-19T22:37:42.259Z,101438.33
2019-02-19T22:40:15.525Z,101449.37
2019-02-19T22:42:48.830Z,101446.81
2019-02-19T22:45:22.104Z,101449.55
2019-02-19T22:47:55.427Z,101441.14
2019-02-19T22:50:28.715Z,101450.34
2019-02-19T22:53:03.665Z,101442.49
2019-02-19T22:55:51.713Z,101446.45
2019-02-19T22:58:25.236Z,101451.45
2019-02-19T23:01:03.563Z,101457.58
2019-02-19T23:03:37.735Z,101462.61
2019-02-19T23:06:11.027Z,101458.70
2019-02-19T23:08:44.342Z,101455.91
2019-02-19T23:11:18.208Z,101454.84
2019-02-19T23:13:51.483Z,101454.77
2019-02-19T23:16:24.760Z,101457.42
2019-02-19T23:18:58.078Z,101460.06
2019-02-19T23:21:32.579Z,101457.51
2019-02-19T23:24:05.861Z,101462.86
2019-02-19T23:26:39.133Z,101460.92
2019-02-19T23:29:12.430Z,101466.95
2019-02-19T23:31:45.704Z,101466.67
2019-02-19T23:34:18.994Z,101465.59
2019-02-19T23:36:53.910Z,101460.33
2019-02-19T23:39:27.218Z,101461.70
2019-02-19T23:42:00.489Z,101464.57
2019-02-19T23:44:33.767Z,101458.86
2019-02-19T23:47:07.113Z,101461.74
2019-02-19T23:49:40.412Z,101466.23
2019-02-19T23:52:13.694Z,101466.31
2019-02-19T23:54:46.999Z,101461.09
2019-02-19T23:57:20.273Z,101465.38
2019-02-19T23:59:53.594Z,101463.87
